sensor_id;sensor_type;location;lat;lon;timestamp;temperature;humidity
56268;DHT22;42175;46.930;9.532;2023-05-07T00:01:46;24.20;52.40
56268;DHT22;42175;46.930;9.532;2023-05-07T00:04:11;24.20;52.20
56268;DHT22;42175;46.930;9.532;2023-05-07T00:06:38;24.20;52.00
56268;DHT22;42175;46.930;9.532;2023-05-07T00:09:04;24.20;52.00
56268;DHT22;42175;46.930;9.532;2023-05-07T00:11:29;24.20;52.10
56268;DHT22;42175;46.930;9.532;2023-05-07T00:13:55;24.10;52.20
56268;DHT22;42175;46.930;9.532;2023-05-07T00:16:21;24.20;52.30
56268;DHT22;42175;46.930;9.532;2023-05-07T00:18:47;24.20;52.30
56268;DHT22;42175;46.930;9.532;2023-05-07T00:21:13;24.20;52.10
56268;DHT22;42175;46.930;9.532;2023-05-07T00:23:38;24.20;52.20
56268;DHT22;42175;46.930;9.532;2023-05-07T00:26:04;24.20;52.10
56268;DHT22;42175;46.930;9.532;2023-05-07T00:28:30;24.20;52.10
56268;DHT22;42175;46.930;9.532;2023-05-07T00:30:56;24.20;52.00
56268;DHT22;42175;46.930;9.532;2023-05-07T00:33:21;24.20;52.20
56268;DHT22;42175;46.930;9.532;2023-05-07T00:35:48;24.20;52.20
56268;DHT22;42175;46.930;9.532;2023-05-07T00:38:14;24.20;52.10
56268;DHT22;42175;46.930;9.532;2023-05-07T00:40:40;24.20;52.10
56268;DHT22;42175;46.930;9.532;2023-05-07T00:43:07;24.20;52.10
56268;DHT22;42175;46.930;9.532;2023-05-07T00:45:34;24.20;52.10
56268;DHT22;42175;46.930;9.532;2023-05-07T00:48:00;24.20;52.00
56268;DHT22;42175;46.930;9.532;2023-05-07T00:50:27;24.20;52.00
56268;DHT22;42175;46.930;9.532;2023-05-07T00:52:54;24.20;52.10
56268;DHT22;42175;46.930;9.532;2023-05-07T00:55:21;24.20;52.00
56268;DHT22;42175;46.930;9.532;2023-05-07T00:57:47;24.20;52.00
56268;DHT22;42175;46.930;9.532;2023-05-07T01:00:13;24.20;52.50
56268;DHT22;42175;46.930;9.532;2023-05-07T01:02:39;24.10;52.00
56268;DHT22;42175;46.930;9.532;2023-05-07T01:05:08;24.20;52.00
56268;DHT22;42175;46.930;9.532;2023-05-07T01:07:34;24.20;52.00
56268;DHT22;42175;46.930;9.532;2023-05-07T01:10:01;24.20;52.00
56268;DHT22;42175;46.930;9.532;2023-05-07T01:12:28;24.20;51.90
56268;DHT22;42175;46.930;9.532;2023-05-07T01:14:55;24.10;51.70
56268;DHT22;42175;46.930;9.532;2023-05-07T01:17:21;24.20;51.90
56268;DHT22;42175;46.930;9.532;2023-05-07T01:19:47;24.20;51.90
56268;DHT22;42175;46.930;9.532;2023-05-07T01:22:15;24.10;51.80
56268;DHT22;42175;46.930;9.532;2023-05-07T01:24:42;24.20;51.80
56268;DHT22;42175;46.930;9.532;2023-05-07T01:27:08;24.20;51.90
56268;DHT22;42175;46.930;9.532;2023-05-07T01:29:34;24.20;51.90
56268;DHT22;42175;46.930;9.532;2023-05-07T01:32:01;24.20;51.80
56268;DHT22;42175;46.930;9.532;2023-05-07T01:34:31;24.20;51.80
56268;DHT22;42175;46.930;9.532;2023-05-07T01:36:58;24.20;51.80
56268;DHT22;42175;46.930;9.532;2023-05-07T01:39:26;24.20;51.70
56268;DHT22;42175;46.930;9.532;2023-05-07T01:41:55;24.20;51.70
56268;DHT22;42175;46.930;9.532;2023-05-07T01:44:22;24.10;51.60
56268;DHT22;42175;46.930;9.532;2023-05-07T01:46:48;24.20;51.70
56268;DHT22;42175;46.930;9.532;2023-05-07T01:49:15;24.10;51.60
56268;DHT22;42175;46.930;9.532;2023-05-07T01:51:42;24.20;51.70
56268;DHT22;42175;46.930;9.532;2023-05-07T01:54:08;24.20;51.50
56268;DHT22;42175;46.930;9.532;2023-05-07T01:56:34;24.20;51.70
56268;DHT22;42175;46.930;9.532;2023-05-07T01:58:59;24.20;51.60
56268;DHT22;42175;46.930;9.532;2023-05-07T02:01:25;24.20;51.50
56268;DHT22;42175;46.930;9.532;2023-05-07T02:03:51;24.20;51.60
56268;DHT22;42175;46.930;9.532;2023-05-07T02:06:17;24.20;51.50
56268;DHT22;42175;46.930;9.532;2023-05-07T02:08:43;24.20;51.50
56268;DHT22;42175;46.930;9.532;2023-05-07T02:11:08;24.20;51.50
56268;DHT22;42175;46.930;9.532;2023-05-07T02:13:34;24.10;51.50
56268;DHT22;42175;46.930;9.532;2023-05-07T02:16:00;24.10;51.40
56268;DHT22;42175;46.930;9.532;2023-05-07T02:18:26;24.10;51.30
56268;DHT22;42175;46.930;9.532;2023-05-07T02:20:52;24.10;51.30
56268;DHT22;42175;46.930;9.532;2023-05-07T02:23:17;24.10;51.40
56268;DHT22;42175;46.930;9.532;2023-05-07T02:25:43;24.10;51.40
56268;DHT22;42175;46.930;9.532;2023-05-07T02:28:09;24.10;51.40
56268;DHT22;42175;46.930;9.532;2023-05-07T02:30:36;24.10;51.30
56268;DHT22;42175;46.930;9.532;2023-05-07T02:33:02;24.10;51.30
56268;DHT22;42175;46.930;9.532;2023-05-07T02:35:28;24.10;51.30
56268;DHT22;42175;46.930;9.532;2023-05-07T02:37:53;24.10;51.30
56268;DHT22;42175;46.930;9.532;2023-05-07T02:40:19;24.10;51.30
56268;DHT22;42175;46.930;9.532;2023-05-07T02:42:45;24.10;51.30
56268;DHT22;42175;46.930;9.532;2023-05-07T02:45:11;24.10;51.20
56268;DHT22;42175;46.930;9.532;2023-05-07T02:47:36;24.10;51.20
56268;DHT22;42175;46.930;9.532;2023-05-07T02:50:03;24.10;51.20
56268;DHT22;42175;46.930;9.532;2023-05-07T02:52:29;24.10;51.20
56268;DHT22;42175;46.930;9.532;2023-05-07T02:54:55;24.10;51.10
56268;DHT22;42175;46.930;9.532;2023-05-07T02:57:20;24.10;51.10
56268;DHT22;42175;46.930;9.532;2023-05-07T02:59:46;24.10;51.10
56268;DHT22;42175;46.930;9.532;2023-05-07T03:02:12;24.10;51.20
56268;DHT22;42175;46.930;9.532;2023-05-07T03:04:39;24.10;51.10
56268;DHT22;42175;46.930;9.532;2023-05-07T03:07:05;24.10;51.10
56268;DHT22;42175;46.930;9.532;2023-05-07T03:09:31;24.10;51.00
56268;DHT22;42175;46.930;9.532;2023-05-07T03:11:57;24.10;51.00
56268;DHT22;42175;46.930;9.532;2023-05-07T03:14:23;24.10;51.00
56268;DHT22;42175;46.930;9.532;2023-05-07T03:16:49;24.10;50.90
56268;DHT22;42175;46.930;9.532;2023-05-07T03:19:15;24.10;50.90
56268;DHT22;42175;46.930;9.532;2023-05-07T03:21:41;24.10;51.00
56268;DHT22;42175;46.930;9.532;2023-05-07T03:24:06;24.10;51.00
56268;DHT22;42175;46.930;9.532;2023-05-07T03:26:32;24.10;50.90
56268;DHT22;42175;46.930;9.532;2023-05-07T03:28:58;24.10;51.00
56268;DHT22;42175;46.930;9.532;2023-05-07T03:31:23;24.00;50.90
56268;DHT22;42175;46.930;9.532;2023-05-07T03:33:54;24.00;50.80
56268;DHT22;42175;46.930;9.532;2023-05-07T03:36:21;24.10;50.90
56268;DHT22;42175;46.930;9.532;2023-05-07T03:38:47;24.00;50.70
56268;DHT22;42175;46.930;9.532;2023-05-07T03:41:13;24.00;50.70
56268;DHT22;42175;46.930;9.532;2023-05-07T03:43:39;24.10;50.70
56268;DHT22;42175;46.930;9.532;2023-05-07T03:46:05;24.10;50.70
56268;DHT22;42175;46.930;9.532;2023-05-07T03:48:31;24.00;50.70
56268;DHT22;42175;46.930;9.532;2023-05-07T03:50:58;24.10;50.80
56268;DHT22;42175;46.930;9.532;2023-05-07T03:53:23;24.10;50.70
56268;DHT22;42175;46.930;9.532;2023-05-07T03:55:49;24.10;50.70
56268;DHT22;42175;46.930;9.532;2023-05-07T03:58:15;24.10;50.70
56268;DHT22;42175;46.930;9.532;2023-05-07T04:00:41;24.00;50.60
56268;DHT22;42175;46.930;9.532;2023-05-07T04:03:08;24.00;50.60
56268;DHT22;42175;46.930;9.532;2023-05-07T04:05:33;24.00;50.50
56268;DHT22;42175;46.930;9.532;2023-05-07T04:08:00;24.00;50.50
56268;DHT22;42175;46.930;9.532;2023-05-07T04:10:26;24.00;50.40
56268;DHT22;42175;46.930;9.532;2023-05-07T04:12:53;24.00;50.40
56268;DHT22;42175;46.930;9.532;2023-05-07T04:15:19;24.00;50.40
56268;DHT22;42175;46.930;9.532;2023-05-07T04:17:45;24.00;50.40
56268;DHT22;42175;46.930;9.532;2023-05-07T04:20:15;24.00;50.50
56268;DHT22;42175;46.930;9.532;2023-05-07T04:22:42;24.00;50.40
56268;DHT22;42175;46.930;9.532;2023-05-07T04:25:09;24.00;50.40
56268;DHT22;42175;46.930;9.532;2023-05-07T04:27:35;24.00;50.40
56268;DHT22;42175;46.930;9.532;2023-05-07T04:30:02;24.00;50.30
56268;DHT22;42175;46.930;9.532;2023-05-07T04:32:28;24.00;50.40
56268;DHT22;42175;46.930;9.532;2023-05-07T04:34:55;24.00;50.40
56268;DHT22;42175;46.930;9.532;2023-05-07T04:37:21;24.00;50.40
56268;DHT22;42175;46.930;9.532;2023-05-07T04:39:47;24.00;50.40
56268;DHT22;42175;46.930;9.532;2023-05-07T04:42:16;24.00;50.40
56268;DHT22;42175;46.930;9.532;2023-05-07T04:44:44;24.00;50.40
56268;DHT22;42175;46.930;9.532;2023-05-07T04:47:10;24.00;50.40
56268;DHT22;42175;46.930;9.532;2023-05-07T04:49:37;24.00;50.40
56268;DHT22;42175;46.930;9.532;2023-05-07T04:52:03;24.00;50.40
56268;DHT22;42175;46.930;9.532;2023-05-07T04:54:29;24.00;50.40
56268;DHT22;42175;46.930;9.532;2023-05-07T04:56:55;24.00;50.40
56268;DHT22;42175;46.930;9.532;2023-05-07T04:59:21;24.00;50.40
56268;DHT22;42175;46.930;9.532;2023-05-07T05:01:47;24.00;50.40
56268;DHT22;42175;46.930;9.532;2023-05-07T05:04:12;24.00;50.30
56268;DHT22;42175;46.930;9.532;2023-05-07T05:06:39;24.00;50.40
56268;DHT22;42175;46.930;9.532;2023-05-07T05:09:04;24.00;50.40
56268;DHT22;42175;46.930;9.532;2023-05-07T05:11:31;24.00;50.30
56268;DHT22;42175;46.930;9.532;2023-05-07T05:13:57;24.00;50.30
56268;DHT22;42175;46.930;9.532;2023-05-07T05:16:22;23.90;50.30
56268;DHT22;42175;46.930;9.532;2023-05-07T05:18:48;24.00;50.90
56268;DHT22;42175;46.930;9.532;2023-05-07T05:21:14;24.00;50.30
56268;DHT22;42175;46.930;9.532;2023-05-07T05:23:39;24.00;50.30
56268;DHT22;42175;46.930;9.532;2023-05-07T05:26:05;24.00;50.30
56268;DHT22;42175;46.930;9.532;2023-05-07T05:28:31;24.00;50.30
56268;DHT22;42175;46.930;9.532;2023-05-07T05:30:56;24.00;50.20
56268;DHT22;42175;46.930;9.532;2023-05-07T05:33:22;24.00;50.30
56268;DHT22;42175;46.930;9.532;2023-05-07T05:35:49;24.00;50.30
56268;DHT22;42175;46.930;9.532;2023-05-07T05:38:16;24.00;50.30
56268;DHT22;42175;46.930;9.532;2023-05-07T05:40:41;24.00;50.30
56268;DHT22;42175;46.930;9.532;2023-05-07T05:43:07;24.00;50.30
56268;DHT22;42175;46.930;9.532;2023-05-07T05:45:33;24.00;50.30
56268;DHT22;42175;46.930;9.532;2023-05-07T05:47:59;24.00;50.20
56268;DHT22;42175;46.930;9.532;2023-05-07T05:50:25;24.00;50.10
56268;DHT22;42175;46.930;9.532;2023-05-07T05:52:51;24.00;50.00
56268;DHT22;42175;46.930;9.532;2023-05-07T05:55:16;24.00;50.00
56268;DHT22;42175;46.930;9.532;2023-05-07T05:57:42;24.00;50.00
56268;DHT22;42175;46.930;9.532;2023-05-07T06:00:08;24.00;50.10
56268;DHT22;42175;46.930;9.532;2023-05-07T06:02:34;24.00;50.30
56268;DHT22;42175;46.930;9.532;2023-05-07T06:05:00;24.00;49.90
56268;DHT22;42175;46.930;9.532;2023-05-07T06:07:26;24.00;50.00
56268;DHT22;42175;46.930;9.532;2023-05-07T06:09:52;24.00;50.00
56268;DHT22;42175;46.930;9.532;2023-05-07T06:12:17;24.00;49.90
56268;DHT22;42175;46.930;9.532;2023-05-07T06:14:43;24.00;49.90
56268;DHT22;42175;46.930;9.532;2023-05-07T06:17:09;24.00;49.90
56268;DHT22;42175;46.930;9.532;2023-05-07T06:19:35;24.00;49.90
56268;DHT22;42175;46.930;9.532;2023-05-07T06:22:01;24.00;49.90
56268;DHT22;42175;46.930;9.532;2023-05-07T06:24:27;24.00;49.70
56268;DHT22;42175;46.930;9.532;2023-05-07T06:26:53;24.00;50.10
56268;DHT22;42175;46.930;9.532;2023-05-07T06:29:18;24.00;49.70
56268;DHT22;42175;46.930;9.532;2023-05-07T06:31:44;24.00;49.70
56268;DHT22;42175;46.930;9.532;2023-05-07T06:34:10;24.00;49.80
56268;DHT22;42175;46.930;9.532;2023-05-07T06:36:40;24.00;49.80
56268;DHT22;42175;46.930;9.532;2023-05-07T06:39:06;24.00;49.80
56268;DHT22;42175;46.930;9.532;2023-05-07T06:41:31;24.00;49.80
56268;DHT22;42175;46.930;9.532;2023-05-07T06:43:57;24.00;49.80
56268;DHT22;42175;46.930;9.532;2023-05-07T06:46:23;24.10;49.90
56268;DHT22;42175;46.930;9.532;2023-05-07T06:48:48;24.00;49.70
56268;DHT22;42175;46.930;9.532;2023-05-07T06:51:14;24.10;49.80
56268;DHT22;42175;46.930;9.532;2023-05-07T06:53:40;24.00;49.60
56268;DHT22;42175;46.930;9.532;2023-05-07T06:56:06;24.10;49.80
56268;DHT22;42175;46.930;9.532;2023-05-07T06:58:32;24.00;49.60
56268;DHT22;42175;46.930;9.532;2023-05-07T07:00:57;24.10;49.70
56268;DHT22;42175;46.930;9.532;2023-05-07T07:03:23;24.10;46.70
56268;DHT22;42175;46.930;9.532;2023-05-07T07:05:52;23.90;46.10
56268;DHT22;42175;46.930;9.532;2023-05-07T07:08:18;23.70;46.50
56268;DHT22;42175;46.930;9.532;2023-05-07T07:10:47;23.50;46.30
56268;DHT22;42175;46.930;9.532;2023-05-07T07:13:13;23.50;46.60
56268;DHT22;42175;46.930;9.532;2023-05-07T07:15:38;23.40;46.90
56268;DHT22;42175;46.930;9.532;2023-05-07T07:18:05;23.50;46.40
56268;DHT22;42175;46.930;9.532;2023-05-07T07:20:31;23.30;45.60
56268;DHT22;42175;46.930;9.532;2023-05-07T07:22:57;23.20;45.80
56268;DHT22;42175;46.930;9.532;2023-05-07T07:25:23;23.10;45.50
56268;DHT22;42175;46.930;9.532;2023-05-07T07:27:49;22.90;45.60
56268;DHT22;42175;46.930;9.532;2023-05-07T07:30:15;22.90;45.10
56268;DHT22;42175;46.930;9.532;2023-05-07T07:32:41;22.80;45.50
56268;DHT22;42175;46.930;9.532;2023-05-07T07:35:07;22.80;45.70
56268;DHT22;42175;46.930;9.532;2023-05-07T07:37:33;22.70;46.10
56268;DHT22;42175;46.930;9.532;2023-05-07T07:39:59;22.70;46.10
56268;DHT22;42175;46.930;9.532;2023-05-07T07:42:25;22.60;46.10
56268;DHT22;42175;46.930;9.532;2023-05-07T07:44:51;22.60;46.10
56268;DHT22;42175;46.930;9.532;2023-05-07T07:47:16;22.60;46.00
56268;DHT22;42175;46.930;9.532;2023-05-07T07:49:42;22.40;46.70
56268;DHT22;42175;46.930;9.532;2023-05-07T07:52:08;22.60;46.50
56268;DHT22;42175;46.930;9.532;2023-05-07T07:54:33;22.60;45.90
56268;DHT22;42175;46.930;9.532;2023-05-07T07:56:59;22.70;46.40
56268;DHT22;42175;46.930;9.532;2023-05-07T07:59:25;22.60;45.40
56268;DHT22;42175;46.930;9.532;2023-05-07T08:01:50;22.60;45.60
56268;DHT22;42175;46.930;9.532;2023-05-07T08:04:17;22.60;46.10
56268;DHT22;42175;46.930;9.532;2023-05-07T08:06:43;22.70;46.70
56268;DHT22;42175;46.930;9.532;2023-05-07T08:09:09;22.80;47.10
56268;DHT22;42175;46.930;9.532;2023-05-07T08:11:35;22.90;47.10
56268;DHT22;42175;46.930;9.532;2023-05-07T08:14:01;23.00;47.10
56268;DHT22;42175;46.930;9.532;2023-05-07T08:16:26;23.00;47.20
56268;DHT22;42175;46.930;9.532;2023-05-07T08:18:53;23.10;47.30
56268;DHT22;42175;46.930;9.532;2023-05-07T08:21:19;23.20;47.40
56268;DHT22;42175;46.930;9.532;2023-05-07T08:23:45;23.20;47.40
56268;DHT22;42175;46.930;9.532;2023-05-07T08:26:11;23.20;47.50
56268;DHT22;42175;46.930;9.532;2023-05-07T08:28:37;23.20;47.50
56268;DHT22;42175;46.930;9.532;2023-05-07T08:31:02;23.20;47.70
56268;DHT22;42175;46.930;9.532;2023-05-07T08:33:28;23.20;47.70
56268;DHT22;42175;46.930;9.532;2023-05-07T08:35:54;23.30;47.70
56268;DHT22;42175;46.930;9.532;2023-05-07T08:38:20;23.30;47.60
56268;DHT22;42175;46.930;9.532;2023-05-07T08:40:45;23.30;47.60
56268;DHT22;42175;46.930;9.532;2023-05-07T08:43:15;23.30;47.80
56268;DHT22;42175;46.930;9.532;2023-05-07T08:45:44;23.30;47.70
56268;DHT22;42175;46.930;9.532;2023-05-07T08:48:15;23.30;47.70
56268;DHT22;42175;46.930;9.532;2023-05-07T08:50:41;23.40;48.00
56268;DHT22;42175;46.930;9.532;2023-05-07T08:53:07;23.40;48.50
56268;DHT22;42175;46.930;9.532;2023-05-07T08:55:32;23.40;48.00
56268;DHT22;42175;46.930;9.532;2023-05-07T08:58:01;23.40;48.10
56268;DHT22;42175;46.930;9.532;2023-05-07T09:00:27;23.40;48.10
56268;DHT22;42175;46.930;9.532;2023-05-07T09:02:53;23.50;48.20
56268;DHT22;42175;46.930;9.532;2023-05-07T09:05:20;23.50;48.20
56268;DHT22;42175;46.930;9.532;2023-05-07T09:07:45;23.50;48.30
56268;DHT22;42175;46.930;9.532;2023-05-07T09:10:12;23.50;48.30
56268;DHT22;42175;46.930;9.532;2023-05-07T09:12:38;23.50;48.30
56268;DHT22;42175;46.930;9.532;2023-05-07T09:15:05;23.50;48.40
56268;DHT22;42175;46.930;9.532;2023-05-07T09:17:31;23.50;48.40
56268;DHT22;42175;46.930;9.532;2023-05-07T09:20:01;23.50;48.50
56268;DHT22;42175;46.930;9.532;2023-05-07T09:22:32;23.60;48.50
56268;DHT22;42175;46.930;9.532;2023-05-07T09:24:58;23.60;48.50
56268;DHT22;42175;46.930;9.532;2023-05-07T09:27:25;23.60;48.60
56268;DHT22;42175;46.930;9.532;2023-05-07T09:29:51;23.60;48.70
56268;DHT22;42175;46.930;9.532;2023-05-07T09:32:17;23.60;48.60
56268;DHT22;42175;46.930;9.532;2023-05-07T09:34:43;23.60;48.60
56268;DHT22;42175;46.930;9.532;2023-05-07T09:37:09;23.60;48.50
56268;DHT22;42175;46.930;9.532;2023-05-07T09:39:45;23.60;48.60
56268;DHT22;42175;46.930;9.532;2023-05-07T09:42:11;23.70;48.70
56268;DHT22;42175;46.930;9.532;2023-05-07T09:44:38;23.70;48.80
56268;DHT22;42175;46.930;9.532;2023-05-07T09:47:07;23.70;48.70
56268;DHT22;42175;46.930;9.532;2023-05-07T09:49:35;23.70;48.80
56268;DHT22;42175;46.930;9.532;2023-05-07T09:52:03;23.70;48.70
56268;DHT22;42175;46.930;9.532;2023-05-07T09:54:32;23.70;48.80
56268;DHT22;42175;46.930;9.532;2023-05-07T09:57:00;23.70;48.80
56268;DHT22;42175;46.930;9.532;2023-05-07T09:59:28;23.70;48.80
56268;DHT22;42175;46.930;9.532;2023-05-07T10:01:57;23.70;48.80
56268;DHT22;42175;46.930;9.532;2023-05-07T10:04:27;23.70;48.80
56268;DHT22;42175;46.930;9.532;2023-05-07T10:06:54;23.70;48.70
56268;DHT22;42175;46.930;9.532;2023-05-07T10:09:21;23.70;48.80
56268;DHT22;42175;46.930;9.532;2023-05-07T10:11:51;23.70;48.70
56268;DHT22;42175;46.930;9.532;2023-05-07T10:14:19;23.70;48.70
56268;DHT22;42175;46.930;9.532;2023-05-07T10:16:46;23.70;48.80
56268;DHT22;42175;46.930;9.532;2023-05-07T10:19:14;23.80;48.80
56268;DHT22;42175;46.930;9.532;2023-05-07T10:21:56;23.80;48.80
56268;DHT22;42175;46.930;9.532;2023-05-07T10:24:27;23.80;48.80
56268;DHT22;42175;46.930;9.532;2023-05-07T10:26:55;23.70;48.80
56268;DHT22;42175;46.930;9.532;2023-05-07T10:29:29;23.70;48.70
56268;DHT22;42175;46.930;9.532;2023-05-07T10:34:45;23.80;48.90
56268;DHT22;42175;46.930;9.532;2023-05-07T10:37:13;23.80;48.90
56268;DHT22;42175;46.930;9.532;2023-05-07T10:39:39;23.80;49.00
56268;DHT22;42175;46.930;9.532;2023-05-07T10:42:13;23.80;48.90
56268;DHT22;42175;46.930;9.532;2023-05-07T10:44:39;23.80;48.90
56268;DHT22;42175;46.930;9.532;2023-05-07T10:47:16;23.80;49.00
56268;DHT22;42175;46.930;9.532;2023-05-07T10:52:21;23.80;48.90
56268;DHT22;42175;46.930;9.532;2023-05-07T10:57:40;23.80;48.80
56268;DHT22;42175;46.930;9.532;2023-05-07T11:05:29;23.80;48.80
56268;DHT22;42175;46.930;9.532;2023-05-07T11:08:02;23.80;48.70
56268;DHT22;42175;46.930;9.532;2023-05-07T11:13:14;23.80;48.60
56268;DHT22;42175;46.930;9.532;2023-05-07T11:15:42;23.90;48.70
56268;DHT22;42175;46.930;9.532;2023-05-07T11:18:10;23.90;48.70
56268;DHT22;42175;46.930;9.532;2023-05-07T11:20:55;23.90;48.80
56268;DHT22;42175;46.930;9.532;2023-05-07T11:26:12;23.90;48.50
56268;DHT22;42175;46.930;9.532;2023-05-07T11:28:40;23.90;48.40
56268;DHT22;42175;46.930;9.532;2023-05-07T11:31:06;24.00;48.40
56268;DHT22;42175;46.930;9.532;2023-05-07T11:33:33;24.00;48.40
56268;DHT22;42175;46.930;9.532;2023-05-07T11:36:03;24.00;48.40
56268;DHT22;42175;46.930;9.532;2023-05-07T11:38:30;23.90;48.40
56268;DHT22;42175;46.930;9.532;2023-05-07T11:40:58;24.00;48.40
56268;DHT22;42175;46.930;9.532;2023-05-07T11:43:28;24.00;48.40
56268;DHT22;42175;46.930;9.532;2023-05-07T11:45:54;24.00;48.50
56268;DHT22;42175;46.930;9.532;2023-05-07T11:48:21;24.00;48.60
56268;DHT22;42175;46.930;9.532;2023-05-07T11:50:59;24.00;48.50
56268;DHT22;42175;46.930;9.532;2023-05-07T11:53:26;24.00;48.40
56268;DHT22;42175;46.930;9.532;2023-05-07T11:55:53;24.00;48.40
56268;DHT22;42175;46.930;9.532;2023-05-07T11:58:22;24.00;48.30
56268;DHT22;42175;46.930;9.532;2023-05-07T12:00:49;24.00;48.40
56268;DHT22;42175;46.930;9.532;2023-05-07T12:03:15;24.00;48.30
56268;DHT22;42175;46.930;9.532;2023-05-07T12:05:41;24.00;48.30
56268;DHT22;42175;46.930;9.532;2023-05-07T12:08:08;24.00;48.40
56268;DHT22;42175;46.930;9.532;2023-05-07T12:10:33;24.00;48.40
56268;DHT22;42175;46.930;9.532;2023-05-07T12:12:59;24.00;48.50
56268;DHT22;42175;46.930;9.532;2023-05-07T12:15:25;23.90;48.50
56268;DHT22;42175;46.930;9.532;2023-05-07T12:17:50;24.00;48.50
56268;DHT22;42175;46.930;9.532;2023-05-07T12:20:18;24.00;48.50
56268;DHT22;42175;46.930;9.532;2023-05-07T12:22:44;24.00;48.50
56268;DHT22;42175;46.930;9.532;2023-05-07T12:25:10;24.00;48.50
56268;DHT22;42175;46.930;9.532;2023-05-07T12:27:37;24.00;48.50
56268;DHT22;42175;46.930;9.532;2023-05-07T12:30:04;24.00;48.60
56268;DHT22;42175;46.930;9.532;2023-05-07T12:32:31;24.00;48.60
56268;DHT22;42175;46.930;9.532;2023-05-07T12:35:01;24.00;48.60
56268;DHT22;42175;46.930;9.532;2023-05-07T12:37:27;24.00;48.60
56268;DHT22;42175;46.930;9.532;2023-05-07T12:40:09;24.00;48.60
56268;DHT22;42175;46.930;9.532;2023-05-07T12:42:37;24.00;48.60
56268;DHT22;42175;46.930;9.532;2023-05-07T12:45:15;24.00;48.60
56268;DHT22;42175;46.930;9.532;2023-05-07T12:47:44;24.00;48.60
56268;DHT22;42175;46.930;9.532;2023-05-07T12:50:11;24.00;48.60
56268;DHT22;42175;46.930;9.532;2023-05-07T12:52:38;24.00;48.60
56268;DHT22;42175;46.930;9.532;2023-05-07T12:55:08;24.00;48.60
56268;DHT22;42175;46.930;9.532;2023-05-07T12:57:42;24.00;48.50
56268;DHT22;42175;46.930;9.532;2023-05-07T13:00:08;24.00;48.50
56268;DHT22;42175;46.930;9.532;2023-05-07T13:02:38;24.00;48.40
56268;DHT22;42175;46.930;9.532;2023-05-07T13:05:05;24.00;48.40
56268;DHT22;42175;46.930;9.532;2023-05-07T13:07:30;24.00;48.30
56268;DHT22;42175;46.930;9.532;2023-05-07T13:09:56;24.00;48.30
56268;DHT22;42175;46.930;9.532;2023-05-07T13:12:21;24.00;48.30
56268;DHT22;42175;46.930;9.532;2023-05-07T13:14:47;24.00;48.20
56268;DHT22;42175;46.930;9.532;2023-05-07T13:17:13;24.00;48.10
56268;DHT22;42175;46.930;9.532;2023-05-07T13:19:39;24.00;48.00
56268;DHT22;42175;46.930;9.532;2023-05-07T13:22:04;24.00;48.00
56268;DHT22;42175;46.930;9.532;2023-05-07T13:24:30;24.10;48.10
56268;DHT22;42175;46.930;9.532;2023-05-07T13:26:56;24.00;48.00
56268;DHT22;42175;46.930;9.532;2023-05-07T13:29:21;24.10;48.10
56268;DHT22;42175;46.930;9.532;2023-05-07T13:31:54;24.10;48.10
56268;DHT22;42175;46.930;9.532;2023-05-07T13:34:20;24.10;48.10
56268;DHT22;42175;46.930;9.532;2023-05-07T13:36:46;24.10;48.10
56268;DHT22;42175;46.930;9.532;2023-05-07T13:39:11;24.10;48.40
56268;DHT22;42175;46.930;9.532;2023-05-07T13:41:37;24.10;48.50
56268;DHT22;42175;46.930;9.532;2023-05-07T13:44:03;24.10;48.50
56268;DHT22;42175;46.930;9.532;2023-05-07T13:46:28;24.20;49.00
56268;DHT22;42175;46.930;9.532;2023-05-07T13:48:55;24.20;48.50
56268;DHT22;42175;46.930;9.532;2023-05-07T13:51:21;24.10;48.10
56268;DHT22;42175;46.930;9.532;2023-05-07T13:53:47;24.20;48.30
56268;DHT22;42175;46.930;9.532;2023-05-07T13:56:13;24.10;48.30
56268;DHT22;42175;46.930;9.532;2023-05-07T13:58:39;24.10;48.20
56268;DHT22;42175;46.930;9.532;2023-05-07T14:01:05;24.10;47.90
56268;DHT22;42175;46.930;9.532;2023-05-07T14:03:31;24.10;48.40
56268;DHT22;42175;46.930;9.532;2023-05-07T14:05:59;24.10;47.80
56268;DHT22;42175;46.930;9.532;2023-05-07T14:08:27;24.10;47.70
56268;DHT22;42175;46.930;9.532;2023-05-07T14:10:52;24.10;47.70
56268;DHT22;42175;46.930;9.532;2023-05-07T14:13:18;24.10;47.70
56268;DHT22;42175;46.930;9.532;2023-05-07T14:15:44;24.10;47.70
56268;DHT22;42175;46.930;9.532;2023-05-07T14:18:15;24.10;47.80
56268;DHT22;42175;46.930;9.532;2023-05-07T14:20:41;24.10;48.00
56268;DHT22;42175;46.930;9.532;2023-05-07T14:23:09;24.10;48.00
56268;DHT22;42175;46.930;9.532;2023-05-07T14:25:35;24.20;48.20
56268;DHT22;42175;46.930;9.532;2023-05-07T14:28:00;24.10;48.10
56268;DHT22;42175;46.930;9.532;2023-05-07T14:30:26;24.10;48.20
56268;DHT22;42175;46.930;9.532;2023-05-07T14:32:52;24.10;48.10
56268;DHT22;42175;46.930;9.532;2023-05-07T14:35:17;24.10;48.20
56268;DHT22;42175;46.930;9.532;2023-05-07T14:37:43;24.20;48.40
56268;DHT22;42175;46.930;9.532;2023-05-07T14:40:09;24.20;48.40
56268;DHT22;42175;46.930;9.532;2023-05-07T14:42:35;24.20;48.50
56268;DHT22;42175;46.930;9.532;2023-05-07T14:45:01;24.20;48.40
56268;DHT22;42175;46.930;9.532;2023-05-07T14:47:27;24.20;48.50
56268;DHT22;42175;46.930;9.532;2023-05-07T14:49:53;24.20;48.50
56268;DHT22;42175;46.930;9.532;2023-05-07T14:52:20;24.20;48.50
56268;DHT22;42175;46.930;9.532;2023-05-07T14:54:46;24.20;48.70
56268;DHT22;42175;46.930;9.532;2023-05-07T14:57:13;24.20;48.70
56268;DHT22;42175;46.930;9.532;2023-05-07T14:59:40;24.10;48.50
56268;DHT22;42175;46.930;9.532;2023-05-07T15:02:07;24.20;48.60
56268;DHT22;42175;46.930;9.532;2023-05-07T15:04:34;24.20;48.70
56268;DHT22;42175;46.930;9.532;2023-05-07T15:07:00;24.10;48.60
56268;DHT22;42175;46.930;9.532;2023-05-07T15:09:26;24.10;48.60
56268;DHT22;42175;46.930;9.532;2023-05-07T15:11:51;24.10;48.50
56268;DHT22;42175;46.930;9.532;2023-05-07T15:14:17;24.10;48.40
56268;DHT22;42175;46.930;9.532;2023-05-07T15:16:43;24.20;48.20
56268;DHT22;42175;46.930;9.532;2023-05-07T15:19:09;24.10;47.80
56268;DHT22;42175;46.930;9.532;2023-05-07T15:21:34;24.10;47.70
56268;DHT22;42175;46.930;9.532;2023-05-07T15:24:02;24.20;48.00
56268;DHT22;42175;46.930;9.532;2023-05-07T15:26:28;24.20;47.80
56268;DHT22;42175;46.930;9.532;2023-05-07T15:28:54;24.10;47.40
56268;DHT22;42175;46.930;9.532;2023-05-07T15:31:23;24.20;47.40
56268;DHT22;42175;46.930;9.532;2023-05-07T15:33:49;24.10;47.30
56268;DHT22;42175;46.930;9.532;2023-05-07T15:36:15;24.20;47.40
56268;DHT22;42175;46.930;9.532;2023-05-07T15:38:41;24.10;47.40
56268;DHT22;42175;46.930;9.532;2023-05-07T15:41:07;24.20;47.30
56268;DHT22;42175;46.930;9.532;2023-05-07T15:43:44;24.10;47.10
56268;DHT22;42175;46.930;9.532;2023-05-07T15:46:11;24.10;46.90